sensor_id;sensor_type;location;lat;lon;timestamp;temperature;humidity
76291;DHT22;65100;46.884;17.410;2023-03-05T00:00:14;4.36;62.20
76291;DHT22;65100;46.884;17.410;2023-03-05T00:02:40;4.40;64.22
76291;DHT22;65100;46.884;17.410;2023-03-05T00:05:06;4.43;64.99
76291;DHT22;65100;46.884;17.410;2023-03-05T00:07:32;4.35;64.86
76291;DHT22;65100;46.884;17.410;2023-03-05T00:09:59;4.28;65.00
76291;DHT22;65100;46.884;17.410;2023-03-05T00:12:25;4.19;64.55
76291;DHT22;65100;46.884;17.410;2023-03-05T00:14:50;4.13;64.86
76291;DHT22;65100;46.884;17.410;2023-03-05T00:17:16;4.09;65.20
76291;DHT22;65100;46.884;17.410;2023-03-05T00:20:03;4.16;64.89
76291;DHT22;65100;46.884;17.410;2023-03-05T00:22:29;4.13;65.49
76291;DHT22;65100;46.884;17.410;2023-03-05T00:24:54;4.09;65.62
76291;DHT22;65100;46.884;17.410;2023-03-05T00:27:19;3.99;65.53
76291;DHT22;65100;46.884;17.410;2023-03-05T00:29:45;3.95;65.69
76291;DHT22;65100;46.884;17.410;2023-03-05T00:32:10;3.89;64.34
76291;DHT22;65100;46.884;17.410;2023-03-05T00:34:36;3.85;65.98
76291;DHT22;65100;46.884;17.410;2023-03-05T00:37:02;3.77;66.42
76291;DHT22;65100;46.884;17.410;2023-03-05T00:39:27;3.65;66.01
76291;DHT22;65100;46.884;17.410;2023-03-05T00:41:53;3.50;65.09
76291;DHT22;65100;46.884;17.410;2023-03-05T00:44:19;3.58;65.34
76291;DHT22;65100;46.884;17.410;2023-03-05T00:46:45;3.68;65.64
76291;DHT22;65100;46.884;17.410;2023-03-05T00:49:10;3.78;64.89
76291;DHT22;65100;46.884;17.410;2023-03-05T00:51:36;3.62;64.00
76291;DHT22;65100;46.884;17.410;2023-03-05T00:54:02;3.64;63.60
76291;DHT22;65100;46.884;17.410;2023-03-05T00:56:27;3.65;64.87
76291;DHT22;65100;46.884;17.410;2023-03-05T00:58:53;3.50;64.22
76291;DHT22;65100;46.884;17.410;2023-03-05T01:01:19;3.50;64.29
76291;DHT22;65100;46.884;17.410;2023-03-05T01:03:44;3.41;64.45
76291;DHT22;65100;46.884;17.410;2023-03-05T01:06:12;3.31;64.68
76291;DHT22;65100;46.884;17.410;2023-03-05T01:08:40;3.03;65.80
76291;DHT22;65100;46.884;17.410;2023-03-05T01:11:07;2.35;67.92
76291;DHT22;65100;46.884;17.410;2023-03-05T01:13:33;1.97;70.25
76291;DHT22;65100;46.884;17.410;2023-03-05T01:15:59;1.75;70.87
76291;DHT22;65100;46.884;17.410;2023-03-05T01:18:24;1.92;69.84
76291;DHT22;65100;46.884;17.410;2023-03-05T01:20:50;2.28;68.53
76291;DHT22;65100;46.884;17.410;2023-03-05T01:23:15;2.50;67.77
76291;DHT22;65100;46.884;17.410;2023-03-05T01:25:41;2.48;67.13
76291;DHT22;65100;46.884;17.410;2023-03-05T01:28:07;2.09;67.48
76291;DHT22;65100;46.884;17.410;2023-03-05T01:30:33;1.95;68.96
76291;DHT22;65100;46.884;17.410;2023-03-05T01:32:59;2.19;68.38
76291;DHT22;65100;46.884;17.410;2023-03-05T01:35:25;1.74;70.18
76291;DHT22;65100;46.884;17.410;2023-03-05T01:37:52;1.40;71.40
76291;DHT22;65100;46.884;17.410;2023-03-05T01:40:24;1.54;71.38
76291;DHT22;65100;46.884;17.410;2023-03-05T01:42:59;1.61;70.53
76291;DHT22;65100;46.884;17.410;2023-03-05T01:45:28;1.55;71.40
76291;DHT22;65100;46.884;17.410;2023-03-05T01:47:54;1.43;72.19
76291;DHT22;65100;46.884;17.410;2023-03-05T01:50:21;1.70;70.62
76291;DHT22;65100;46.884;17.410;2023-03-05T01:52:53;1.38;71.79
76291;DHT22;65100;46.884;17.410;2023-03-05T01:55:21;1.31;72.63
76291;DHT22;65100;46.884;17.410;2023-03-05T01:57:55;1.37;71.36
76291;DHT22;65100;46.884;17.410;2023-03-05T02:00:26;1.24;71.89
76291;DHT22;65100;46.884;17.410;2023-03-05T02:02:52;1.79;71.27
76291;DHT22;65100;46.884;17.410;2023-03-05T02:05:23;1.70;70.76
76291;DHT22;65100;46.884;17.410;2023-03-05T02:08:04;1.46;70.31
76291;DHT22;65100;46.884;17.410;2023-03-05T02:10:43;1.17;72.16
76291;DHT22;65100;46.884;17.410;2023-03-05T02:13:12;1.28;71.45
76291;DHT22;65100;46.884;17.410;2023-03-05T02:15:39;1.10;72.06
76291;DHT22;65100;46.884;17.410;2023-03-05T02:18:06;1.37;71.15
76291;DHT22;65100;46.884;17.410;2023-03-05T02:21:07;1.33;72.68
76291;DHT22;65100;46.884;17.410;2023-03-05T02:23:34;1.85;70.38
76291;DHT22;65100;46.884;17.410;2023-03-05T02:26:05;2.19;68.60
76291;DHT22;65100;46.884;17.410;2023-03-05T02:28:36;2.42;69.11
76291;DHT22;65100;46.884;17.410;2023-03-05T02:31:08;2.62;68.84
76291;DHT22;65100;46.884;17.410;2023-03-05T02:33:34;2.63;67.09
76291;DHT22;65100;46.884;17.410;2023-03-05T02:35:59;2.75;70.12
76291;DHT22;65100;46.884;17.410;2023-03-05T02:38:25;2.79;69.77
76291;DHT22;65100;46.884;17.410;2023-03-05T02:40:50;2.70;70.28
76291;DHT22;65100;46.884;17.410;2023-03-05T02:43:16;2.69;69.93
76291;DHT22;65100;46.884;17.410;2023-03-05T02:45:42;2.70;69.44
76291;DHT22;65100;46.884;17.410;2023-03-05T02:48:07;2.82;69.95
76291;DHT22;65100;46.884;17.410;2023-03-05T02:50:33;2.87;69.22
76291;DHT22;65100;46.884;17.410;2023-03-05T02:52:58;2.80;67.91
76291;DHT22;65100;46.884;17.410;2023-03-05T02:55:24;2.66;67.93
76291;DHT22;65100;46.884;17.410;2023-03-05T02:57:50;2.79;67.26
76291;DHT22;65100;46.884;17.410;2023-03-05T03:00:16;2.89;66.61
76291;DHT22;65100;46.884;17.410;2023-03-05T03:02:41;2.77;65.78
76291;DHT22;65100;46.884;17.410;2023-03-05T03:05:07;2.66;66.96
76291;DHT22;65100;46.884;17.410;2023-03-05T03:07:33;2.45;67.13
76291;DHT22;65100;46.884;17.410;2023-03-05T03:10:01;2.43;66.67
76291;DHT22;65100;46.884;17.410;2023-03-05T03:12:26;2.33;66.99
76291;DHT22;65100;46.884;17.410;2023-03-05T03:14:52;2.24;66.28
76291;DHT22;65100;46.884;17.410;2023-03-05T03:17:18;2.18;66.39
76291;DHT22;65100;46.884;17.410;2023-03-05T03:19:44;2.19;66.59
76291;DHT22;65100;46.884;17.410;2023-03-05T03:22:12;2.06;66.63
76291;DHT22;65100;46.884;17.410;2023-03-05T03:24:39;1.92;68.19
76291;DHT22;65100;46.884;17.410;2023-03-05T03:27:05;1.79;66.81
76291;DHT22;65100;46.884;17.410;2023-03-05T03:29:31;1.85;66.47
76291;DHT22;65100;46.884;17.410;2023-03-05T03:31:57;1.77;67.50
76291;DHT22;65100;46.884;17.410;2023-03-05T03:34:23;1.71;67.48
76291;DHT22;65100;46.884;17.410;2023-03-05T03:36:49;1.65;66.65
76291;DHT22;65100;46.884;17.410;2023-03-05T03:39:15;1.54;66.39
76291;DHT22;65100;46.884;17.410;2023-03-05T03:41:43;1.34;66.61
76291;DHT22;65100;46.884;17.410;2023-03-05T03:44:09;0.96;67.76
76291;DHT22;65100;46.884;17.410;2023-03-05T03:46:38;0.58;69.65
76291;DHT22;65100;46.884;17.410;2023-03-05T03:49:06;0.55;70.13
76291;DHT22;65100;46.884;17.410;2023-03-05T03:51:32;0.48;71.09
76291;DHT22;65100;46.884;17.410;2023-03-05T03:53:58;0.50;71.39
76291;DHT22;65100;46.884;17.410;2023-03-05T03:56:24;0.42;71.96
76291;DHT22;65100;46.884;17.410;2023-03-05T03:58:51;0.08;73.37
76291;DHT22;65100;46.884;17.410;2023-03-05T04:01:17;0.59;71.71
76291;DHT22;65100;46.884;17.410;2023-03-05T04:03:43;0.77;69.07
76291;DHT22;65100;46.884;17.410;2023-03-05T04:06:09;0.97;68.36
76291;DHT22;65100;46.884;17.410;2023-03-05T04:08:35;0.97;68.30
76291;DHT22;65100;46.884;17.410;2023-03-05T04:11:00;0.76;69.15
76291;DHT22;65100;46.884;17.410;2023-03-05T04:13:26;0.90;69.82
76291;DHT22;65100;46.884;17.410;2023-03-05T04:15:52;1.01;68.44
76291;DHT22;65100;46.884;17.410;2023-03-05T04:18:18;1.19;67.69
76291;DHT22;65100;46.884;17.410;2023-03-05T04:20:43;1.19;67.14
76291;DHT22;65100;46.884;17.410;2023-03-05T04:23:09;1.27;68.32
76291;DHT22;65100;46.884;17.410;2023-03-05T04:25:34;1.03;67.69
76291;DHT22;65100;46.884;17.410;2023-03-05T04:27:59;0.65;69.42
76291;DHT22;65100;46.884;17.410;2023-03-05T04:30:25;0.42;71.04
76291;DHT22;65100;46.884;17.410;2023-03-05T04:32:50;0.37;71.56
76291;DHT22;65100;46.884;17.410;2023-03-05T04:35:16;0.94;69.27
76291;DHT22;65100;46.884;17.410;2023-03-05T04:37:41;0.83;68.43
76291;DHT22;65100;46.884;17.410;2023-03-05T04:40:07;0.92;68.28
76291;DHT22;65100;46.884;17.410;2023-03-05T04:42:33;0.90;67.46
76291;DHT22;65100;46.884;17.410;2023-03-05T04:44:58;1.00;66.76
76291;DHT22;65100;46.884;17.410;2023-03-05T04:47:24;0.59;67.99
76291;DHT22;65100;46.884;17.410;2023-03-05T04:49:49;0.32;68.68
76291;DHT22;65100;46.884;17.410;2023-03-05T04:52:15;-0.02;70.02
76291;DHT22;65100;46.884;17.410;2023-03-05T04:54:40;-0.49;71.03
76291;DHT22;65100;46.884;17.410;2023-03-05T04:57:06;-0.56;72.61
76291;DHT22;65100;46.884;17.410;2023-03-05T04:59:32;0.14;70.57
76291;DHT22;65100;46.884;17.410;2023-03-05T05:01:57;0.30;69.68
76291;DHT22;65100;46.884;17.410;2023-03-05T05:04:22;0.02;71.24
76291;DHT22;65100;46.884;17.410;2023-03-05T05:06:48;0.22;71.02
76291;DHT22;65100;46.884;17.410;2023-03-05T05:09:13;0.55;69.58
76291;DHT22;65100;46.884;17.410;2023-03-05T05:11:39;0.18;67.75
76291;DHT22;65100;46.884;17.410;2023-03-05T05:14:05;0.08;68.97
76291;DHT22;65100;46.884;17.410;2023-03-05T05:16:30;0.18;70.78
76291;DHT22;65100;46.884;17.410;2023-03-05T05:18:56;0.28;69.43
76291;DHT22;65100;46.884;17.410;2023-03-05T05:21:21;0.24;68.46
76291;DHT22;65100;46.884;17.410;2023-03-05T05:23:47;0.11;70.65
76291;DHT22;65100;46.884;17.410;2023-03-05T05:26:12;-0.07;69.55
76291;DHT22;65100;46.884;17.410;2023-03-05T05:28:42;-0.10;69.44
76291;DHT22;65100;46.884;17.410;2023-03-05T05:31:09;-0.64;70.39
76291;DHT22;65100;46.884;17.410;2023-03-05T05:33:35;-1.19;73.09
76291;DHT22;65100;46.884;17.410;2023-03-05T05:36:07;-1.30;74.54
76291;DHT22;65100;46.884;17.410;2023-03-05T05:38:33;-1.19;73.40
76291;DHT22;65100;46.884;17.410;2023-03-05T05:41:10;-1.21;74.14
76291;DHT22;65100;46.884;17.410;2023-03-05T05:43:36;-0.88;73.17
76291;DHT22;65100;46.884;17.410;2023-03-05T05:46:04;-0.36;70.93
76291;DHT22;65100;46.884;17.410;2023-03-05T05:48:31;-0.19;70.37
76291;DHT22;65100;46.884;17.410;2023-03-05T05:50:58;0.05;69.94
76291;DHT22;65100;46.884;17.410;2023-03-05T05:53:24;0.12;69.67
76291;DHT22;65100;46.884;17.410;2023-03-05T05:55:50;0.04;68.26
76291;DHT22;65100;46.884;17.410;2023-03-05T05:58:15;0.68;68.78
76291;DHT22;65100;46.884;17.410;2023-03-05T06:00:41;0.97;65.61
76291;DHT22;65100;46.884;17.410;2023-03-05T06:03:07;0.75;67.58
76291;DHT22;65100;46.884;17.410;2023-03-05T06:05:33;1.74;63.70
76291;DHT22;65100;46.884;17.410;2023-03-05T06:07:58;1.92;63.15
76291;DHT22;65100;46.884;17.410;2023-03-05T06:10:24;3.20;60.60
76291;DHT22;65100;46.884;17.410;2023-03-05T06:12:50;3.61;58.81
76291;DHT22;65100;46.884;17.410;2023-03-05T06:15:15;4.61;56.61
76291;DHT22;65100;46.884;17.410;2023-03-05T06:17:41;4.53;56.91
76291;DHT22;65100;46.884;17.410;2023-03-05T06:20:07;4.37;56.59
76291;DHT22;65100;46.884;17.410;2023-03-05T06:22:36;5.13;58.18
76291;DHT22;65100;46.884;17.410;2023-03-05T06:25:03;5.95;54.06
76291;DHT22;65100;46.884;17.410;2023-03-05T06:27:29;6.67;52.43
76291;DHT22;65100;46.884;17.410;2023-03-05T06:29:54;7.82;50.19
76291;DHT22;65100;46.884;17.410;2023-03-05T06:32:21;8.41;48.39
76291;DHT22;65100;46.884;17.410;2023-03-05T06:34:47;8.84;47.27
76291;DHT22;65100;46.884;17.410;2023-03-05T06:37:13;9.04;46.40
76291;DHT22;65100;46.884;17.410;2023-03-05T06:39:38;9.32;47.18
76291;DHT22;65100;46.884;17.410;2023-03-05T06:42:04;9.21;47.47
76291;DHT22;65100;46.884;17.410;2023-03-05T06:44:29;9.02;48.20
76291;DHT22;65100;46.884;17.410;2023-03-05T06:46:55;8.07;48.89
76291;DHT22;65100;46.884;17.410;2023-03-05T06:49:20;8.12;47.96
76291;DHT22;65100;46.884;17.410;2023-03-05T06:51:46;8.47;47.40
76291;DHT22;65100;46.884;17.410;2023-03-05T06:54:14;9.16;45.39
76291;DHT22;65100;46.884;17.410;2023-03-05T06:56:44;9.65;44.77
76291;DHT22;65100;46.884;17.410;2023-03-05T06:59:11;9.48;45.10
76291;DHT22;65100;46.884;17.410;2023-03-05T07:01:37;9.90;44.95
76291;DHT22;65100;46.884;17.410;2023-03-05T07:04:02;8.63;45.71
76291;DHT22;65100;46.884;17.410;2023-03-05T07:06:31;7.07;51.14
76291;DHT22;65100;46.884;17.410;2023-03-05T07:08:58;8.56;47.81
76291;DHT22;65100;46.884;17.410;2023-03-05T07:11:25;8.67;46.98
76291;DHT22;65100;46.884;17.410;2023-03-05T07:13:51;8.06;48.99
76291;DHT22;65100;46.884;17.410;2023-03-05T07:16:22;7.58;52.44
76291;DHT22;65100;46.884;17.410;2023-03-05T07:18:49;7.12;52.17
76291;DHT22;65100;46.884;17.410;2023-03-05T07:21:20;6.90;53.12
76291;DHT22;65100;46.884;17.410;2023-03-05T07:23:46;7.18;53.64
76291;DHT22;65100;46.884;17.410;2023-03-05T07:26:12;7.61;53.92
76291;DHT22;65100;46.884;17.410;2023-03-05T07:28:38;7.94;50.40
76291;DHT22;65100;46.884;17.410;2023-03-05T07:31:06;8.87;49.16
76291;DHT22;65100;46.884;17.410;2023-03-05T07:33:33;8.85;48.20
76291;DHT22;65100;46.884;17.410;2023-03-05T07:35:59;8.56;48.25
76291;DHT22;65100;46.884;17.410;2023-03-05T07:38:26;7.51;53.19
76291;DHT22;65100;46.884;17.410;2023-03-05T07:40:52;7.99;52.09
76291;DHT22;65100;46.884;17.410;2023-03-05T07:43:17;7.82;53.02
76291;DHT22;65100;46.884;17.410;2023-03-05T07:45:44;7.61;53.14
76291;DHT22;65100;46.884;17.410;2023-03-05T07:48:17;8.14;51.33
76291;DHT22;65100;46.884;17.410;2023-03-05T07:50:45;8.00;52.83
76291;DHT22;65100;46.884;17.410;2023-03-05T07:53:11;7.35;52.73
76291;DHT22;65100;46.884;17.410;2023-03-05T07:55:46;7.68;52.61
76291;DHT22;65100;46.884;17.410;2023-03-05T07:58:12;7.62;52.54
76291;DHT22;65100;46.884;17.410;2023-03-05T08:00:38;7.86;52.16
76291;DHT22;65100;46.884;17.410;2023-03-05T08:03:04;8.38;51.16
76291;DHT22;65100;46.884;17.410;2023-03-05T08:05:29;8.56;50.86
76291;DHT22;65100;46.884;17.410;2023-03-05T08:07:55;9.32;47.65
76291;DHT22;65100;46.884;17.410;2023-03-05T08:10:20;9.69;45.91
76291;DHT22;65100;46.884;17.410;2023-03-05T08:12:46;9.94;44.61
76291;DHT22;65100;46.884;17.410;2023-03-05T08:15:11;10.82;43.60
76291;DHT22;65100;46.884;17.410;2023-03-05T08:17:58;10.21;43.46
76291;DHT22;65100;46.884;17.410;2023-03-05T08:20:23;9.92;45.10
76291;DHT22;65100;46.884;17.410;2023-03-05T08:22:49;9.45;46.09
76291;DHT22;65100;46.884;17.410;2023-03-05T08:25:35;9.49;46.07
76291;DHT22;65100;46.884;17.410;2023-03-05T08:28:02;9.69;44.12
76291;DHT22;65100;46.884;17.410;2023-03-05T08:30:28;9.83;45.42
76291;DHT22;65100;46.884;17.410;2023-03-05T08:32:54;9.96;44.46
76291;DHT22;65100;46.884;17.410;2023-03-05T08:35:20;9.97;45.78
76291;DHT22;65100;46.884;17.410;2023-03-05T08:37:45;10.34;44.45
76291;DHT22;65100;46.884;17.410;2023-03-05T08:40:11;10.03;44.59
76291;DHT22;65100;46.884;17.410;2023-03-05T08:42:37;9.65;46.24
76291;DHT22;65100;46.884;17.410;2023-03-05T08:45:02;9.73;45.88
76291;DHT22;65100;46.884;17.410;2023-03-05T08:47:28;9.79;45.82
76291;DHT22;65100;46.884;17.410;2023-03-05T08:49:53;9.93;45.72
76291;DHT22;65100;46.884;17.410;2023-03-05T08:52:21;9.73;45.98
76291;DHT22;65100;46.884;17.410;2023-03-05T08:54:47;9.85;45.81
76291;DHT22;65100;46.884;17.410;2023-03-05T08:57:12;9.63;45.57
76291;DHT22;65100;46.884;17.410;2023-03-05T08:59:38;9.52;46.28
76291;DHT22;65100;46.884;17.410;2023-03-05T09:02:03;9.72;45.55
76291;DHT22;65100;46.884;17.410;2023-03-05T09:04:29;9.75;45.85
76291;DHT22;65100;46.884;17.410;2023-03-05T09:06:56;9.56;45.76
76291;DHT22;65100;46.884;17.410;2023-03-05T09:09:21;9.70;45.43
76291;DHT22;65100;46.884;17.410;2023-03-05T09:11:47;9.73;45.16
76291;DHT22;65100;46.884;17.410;2023-03-05T09:14:13;9.90;45.86
76291;DHT22;65100;46.884;17.410;2023-03-05T09:16:38;9.53;45.45
76291;DHT22;65100;46.884;17.410;2023-03-05T09:19:05;9.55;45.96
76291;DHT22;65100;46.884;17.410;2023-03-05T09:21:33;9.49;46.68
76291;DHT22;65100;46.884;17.410;2023-03-05T09:23:59;9.26;45.26
76291;DHT22;65100;46.884;17.410;2023-03-05T09:26:25;9.58;46.62
76291;DHT22;65100;46.884;17.410;2023-03-05T09:28:51;9.68;45.39
76291;DHT22;65100;46.884;17.410;2023-03-05T09:31:16;9.32;45.96
76291;DHT22;65100;46.884;17.410;2023-03-05T09:33:42;9.45;46.14
76291;DHT22;65100;46.884;17.410;2023-03-05T09:36:25;9.68;45.62
76291;DHT22;65100;46.884;17.410;2023-03-05T09:38:51;9.39;44.85
76291;DHT22;65100;46.884;17.410;2023-03-05T09:41:25;9.36;44.88
76291;DHT22;65100;46.884;17.410;2023-03-05T09:44:04;9.79;44.55
76291;DHT22;65100;46.884;17.410;2023-03-05T09:47:15;9.76;45.66
76291;DHT22;65100;46.884;17.410;2023-03-05T09:52:40;9.83;44.23
76291;DHT22;65100;46.884;17.410;2023-03-05T09:55:19;9.69;44.17
76291;DHT22;65100;46.884;17.410;2023-03-05T09:57:51;10.00;47.11
76291;DHT22;65100;46.884;17.410;2023-03-05T10:00:38;9.86;43.58
76291;DHT22;65100;46.884;17.410;2023-03-05T10:03:11;10.04;44.37
76291;DHT22;65100;46.884;17.410;2023-03-05T10:08:28;9.34;44.01
76291;DHT22;65100;46.884;17.410;2023-03-05T10:10:58;9.73;44.52
76291;DHT22;65100;46.884;17.410;2023-03-05T10:13:31;9.96;45.90
76291;DHT22;65100;46.884;17.410;2023-03-05T10:21:50;10.09;46.37
76291;DHT22;65100;46.884;17.410;2023-03-05T10:24:40;9.99;47.09
76291;DHT22;65100;46.884;17.410;2023-03-05T10:27:18;9.96;46.57
76291;DHT22;65100;46.884;17.410;2023-03-05T10:30:04;9.75;45.94
76291;DHT22;65100;46.884;17.410;2023-03-05T10:44:20;9.80;46.19
76291;DHT22;65100;46.884;17.410;2023-03-05T10:46:51;10.03;47.83
76291;DHT22;65100;46.884;17.410;2023-03-05T10:49:25;10.07;47.74
76291;DHT22;65100;46.884;17.410;2023-03-05T10:54:35;9.87;47.08
76291;DHT22;65100;46.884;17.410;2023-03-05T10:59:45;9.82;47.55
76291;DHT22;65100;46.884;17.410;2023-03-05T11:02:11;9.82;47.63
76291;DHT22;65100;46.884;17.410;2023-03-05T11:04:38;9.86;46.00
76291;DHT22;65100;46.884;17.410;2023-03-05T11:10:09;9.85;46.84
76291;DHT22;65100;46.884;17.410;2023-03-05T11:12:38;10.16;46.24
76291;DHT22;65100;46.884;17.410;2023-03-05T11:17:45;10.14;46.02
76291;DHT22;65100;46.884;17.410;2023-03-05T11:23:20;10.80;47.87
76291;DHT22;65100;46.884;17.410;2023-03-05T11:26:23;10.50;50.02
76291;DHT22;65100;46.884;17.410;2023-03-05T11:34:01;9.83;47.75
76291;DHT22;65100;46.884;17.410;2023-03-05T11:36:38;9.83;47.67
76291;DHT22;65100;46.884;17.410;2023-03-05T11:44:10;9.96;47.74
76291;DHT22;65100;46.884;17.410;2023-03-05T11:46:55;9.75;48.42
76291;DHT22;65100;46.884;17.410;2023-03-05T11:49:27;9.75;49.28
76291;DHT22;65100;46.884;17.410;2023-03-05T11:52:06;9.66;48.65
76291;DHT22;65100;46.884;17.410;2023-03-05T11:55:12;9.85;48.48
76291;DHT22;65100;46.884;17.410;2023-03-05T12:00:26;10.09;49.77
76291;DHT22;65100;46.884;17.410;2023-03-05T12:02:54;10.38;47.17
76291;DHT22;65100;46.884;17.410;2023-03-05T12:05:21;10.26;47.12
76291;DHT22;65100;46.884;17.410;2023-03-05T12:07:49;10.47;46.55
76291;DHT22;65100;46.884;17.410;2023-03-05T12:10:20;10.50;47.18
76291;DHT22;65100;46.884;17.410;2023-03-05T12:23:23;10.04;47.78
76291;DHT22;65100;46.884;17.410;2023-03-05T12:25:54;10.18;48.42
76291;DHT22;65100;46.884;17.410;2023-03-05T12:31:28;10.26;47.26
76291;DHT22;65100;46.884;17.410;2023-03-05T12:33:59;10.02;50.28
76291;DHT22;65100;46.884;17.410;2023-03-05T12:36:44;9.83;47.87
76291;DHT22;65100;46.884;17.410;2023-03-05T12:47:39;9.42;49.43
76291;DHT22;65100;46.884;17.410;2023-03-05T12:53:15;9.43;49.17
76291;DHT22;65100;46.884;17.410;2023-03-05T12:58:25;9.34;48.75
76291;DHT22;65100;46.884;17.410;2023-03-05T13:01:03;9.15;49.46
76291;DHT22;65100;46.884;17.410;2023-03-05T13:03:33;9.45;48.67
76291;DHT22;65100;46.884;17.410;2023-03-05T13:05:59;9.45;50.28
76291;DHT22;65100;46.884;17.410;2023-03-05T13:08:34;9.26;48.75
76291;DHT22;65100;46.884;17.410;2023-03-05T13:11:15;9.48;49.16
76291;DHT22;65100;46.884;17.410;2023-03-05T13:13:45;9.52;48.53
76291;DHT22;65100;46.884;17.410;2023-03-05T13:16:37;9.55;51.76
76291;DHT22;65100;46.884;17.410;2023-03-05T13:19:11;9.56;48.72
76291;DHT22;65100;46.884;17.410;2023-03-05T13:21:39;9.48;47.88
76291;DHT22;65100;46.884;17.410;2023-03-05T13:24:15;9.42;48.73
76291;DHT22;65100;46.884;17.410;2023-03-05T13:26:41;9.34;49.64
76291;DHT22;65100;46.884;17.410;2023-03-05T13:29:13;9.39;48.84
76291;DHT22;65100;46.884;17.410;2023-03-05T13:31:43;9.58;47.94
76291;DHT22;65100;46.884;17.410;2023-03-05T13:34:19;9.55;50.81
76291;DHT22;65100;46.884;17.410;2023-03-05T13:37:16;9.56;48.73
76291;DHT22;65100;46.884;17.410;2023-03-05T13:40:04;9.55;49.99
76291;DHT22;65100;46.884;17.410;2023-03-05T13:42:39;9.46;49.17
76291;DHT22;65100;46.884;17.410;2023-03-05T13:45:28;9.53;50.15
76291;DHT22;65100;46.884;17.410;2023-03-05T13:48:01;9.62;48.40
76291;DHT22;65100;46.884;17.410;2023-03-05T13:50:35;9.55;48.57
76291;DHT22;65100;46.884;17.410;2023-03-05T13:53:18;9.48;48.77
76291;DHT22;65100;46.884;17.410;2023-03-05T13:55:46;9.68;48.26
76291;DHT22;65100;46.884;17.410;2023-03-05T13:58:48;9.60;48.82
76291;DHT22;65100;46.884;17.410;2023-03-05T14:03:54;9.50;48.34
76291;DHT22;65100;46.884;17.410;2023-03-05T14:06:24;9.50;49.14
76291;DHT22;65100;46.884;17.410;2023-03-05T14:08:53;9.56;48.77
76291;DHT22;65100;46.884;17.410;2023-03-05T14:11:19;9.40;48.93
76291;DHT22;65100;46.884;17.410;2023-03-05T14:13:46;9.40;48.69
76291;DHT22;65100;46.884;17.410;2023-03-05T14:18:55;8.56;50.67
76291;DHT22;65100;46.884;17.410;2023-03-05T14:21:21;8.60;51.63
76291;DHT22;65100;46.884;17.410;2023-03-05T14:23:49;8.54;50.87
76291;DHT22;65100;46.884;17.410;2023-03-05T14:26:30;8.94;50.97
76291;DHT22;65100;46.884;17.410;2023-03-05T14:29:20;8.87;50.81
76291;DHT22;65100;46.884;17.410;2023-03-05T14:34:29;8.67;52.22
76291;DHT22;65100;46.884;17.410;2023-03-05T14:37:01;8.61;53.14
76291;DHT22;65100;46.884;17.410;2023-03-05T14:44:45;8.74;52.27
76291;DHT22;65100;46.884;17.410;2023-03-05T14:47:11;8.74;53.26
76291;DHT22;65100;46.884;17.410;2023-03-05T14:49:36;8.54;53.05
76291;DHT22;65100;46.884;17.410;2023-03-05T14:52:02;8.32;55.63
76291;DHT22;65100;46.884;17.410;2023-03-05T14:54:31;8.30;55.45
76291;DHT22;65100;46.884;17.410;2023-03-05T14:57:00;8.14;53.03
76291;DHT22;65100;46.884;17.410;2023-03-05T14:59:25;7.90;53.74
76291;DHT22;65100;46.884;17.410;2023-03-05T15:01:51;7.99;53.70
76291;DHT22;65100;46.884;17.410;2023-03-05T15:04:16;8.22;52.85
76291;DHT22;65100;46.884;17.410;2023-03-05T15:06:44;8.09;53.52
76291;DHT22;65100;46.884;17.410;2023-03-05T15:09:14;8.14;52.62
76291;DHT22;65100;46.884;17.410;2023-03-05T15:11:42;8.20;53.02
76291;DHT22;65100;46.884;17.410;2023-03-05T15:14:09;8.23;53.30
76291;DHT22;65100;46.884;17.410;2023-03-05T15:16:34;8.13;53.43
76291;DHT22;65100;46.884;17.410;2023-03-05T15:19:00;8.22;52.85
76291;DHT22;65100;46.884;17.410;2023-03-05T15:21:27;8.12;52.95
76291;DHT22;65100;46.884;17.410;2023-03-05T15:23:53;8.17;54.24
76291;DHT22;65100;46.884;17.410;2023-03-05T15:26:19;8.29;53.89
76291;DHT22;65100;46.884;17.410;2023-03-05T15:28:46;8.09;52.66
76291;DHT22;65100;46.884;17.410;2023-03-05T15:31:11;8.09;53.02
76291;DHT22;65100;46.884;17.410;2023-03-05T15:33:37;8.13;52.94
76291;DHT22;65100;46.884;17.410;2023-03-05T15:36:03;7.94;53.41
76291;DHT22;65100;46.884;17.410;2023-03-05T15:38:28;7.89;53.52
76291;DHT22;65100;46.884;17.410;2023-03-05T15:40:54;8.07;52.85
76291;DHT22;65100;46.884;17.410;2023-03-05T15:43:19;8.04;52.79
76291;DHT22;65100;46.884;17.410;2023-03-05T15:45:45;8.04;52.77
76291;DHT22;65100;46.884;17.410;2023-03-05T15:48:11;8.06;53.12
76291;DHT22;65100;46.884;17.410;2023-03-05T15:50:40;7.97;53.63
76291;DHT22;65100;46.884;17.410;2023-03-05T15:53:07;7.93;53.08
76291;DHT22;65100;46.884;17.410;2023-03-05T15:55:40;7.99;52.83
76291;DHT22;65100;46.884;17.410;2023-03-05T15:58:07;7.97;53.88
76291;DHT22;65100;46.884;17.410;2023-03-05T16:00:34;7.87;54.28
76291;DHT22;65100;46.884;17.410;2023-03-05T16:03:01;8.02;53.01
76291;DHT22;65100;46.884;17.410;2023-03-05T16:05:27;8.22;52.44
76291;DHT22;65100;46.884;17.410;2023-03-05T16:07:53;8.33;50.86
76291;DHT22;65100;46.884;17.410;2023-03-05T16:10:21;8.33;50.85
76291;DHT22;65100;46.884;17.410;2023-03-05T16:12:51;8.29;50.84
76291;DHT22;65100;46.884;17.410;2023-03-05T16:15:19;8.07;51.57
76291;DHT22;65100;46.884;17.410;2023-03-05T16:17:48;8.16;50.66
76291;DHT22;65100;46.884;17.410;2023-03-05T16:20:16;8.17;53.65
76291;DHT22;65100;46.884;17.410;2023-03-05T16:22:41;8.22;52.52
76291;DHT22;65100;46.884;17.410;2023-03-05T16:25:07;8.23;52.49
76291;DHT22;65100;46.884;17.410;2023-03-05T16:27:33;8.13;52.01
76291;DHT22;65100;46.884;17.410;2023-03-05T16:29:58;7.81;53.05
76291;DHT22;65100;46.884;17.410;2023-03-05T16:32:24;7.83;53.32
76291;DHT22;65100;46.884;17.410;2023-03-05T16:34:49;7.82;55.52
76291;DHT22;65100;46.884;17.410;2023-03-05T16:37:20;8.00;57.12
76291;DHT22;65100;46.884;17.410;2023-03-05T16:39:47;7.81;56.64
76291;DHT22;65100;46.884;17.410;2023-03-05T16:42:12;8.06;56.90
76291;DHT22;65100;46.884;17.410;2023-03-05T16:44:39;8.23;57.66
76291;DHT22;65100;46.884;17.410;2023-03-05T16:47:05;8.25;59.22
76291;DHT22;65100;46.884;17.410;2023-03-05T16:49:32;8.19;59.22
76291;DHT22;65100;46.884;17.410;2023-03-05T16:52:00;7.97;58.00
76291;DHT22;65100;46.884;17.410;2023-03-05T16:54:25;7.82;57.56
76291;DHT22;65100;46.884;17.410;2023-03-05T16:56:51;7.75;54.99
76291;DHT22;65100;46.884;17.410;2023-03-05T16:59:16;7.93;56.81
76291;DHT22;65100;46.884;17.410;2023-03-05T17:01:41;7.89;53.95
76291;DHT22;65100;46.884;17.410;2023-03-05T17:04:07;7.94;54.28
76291;DHT22;65100;46.884;17.410;2023-03-05T17:06:33;7.92;54.76
76291;DHT22;65100;46.884;17.410;2023-03-05T17:08:59;7.63;54.91